sensor_id;sensor_type;location;lat;lon;timestamp;temperature;humidity
36442;DHT22;73131;50.820;16.274;2023-10-31T00:00:36;15.70;99.90
36442;DHT22;73131;50.820;16.274;2023-10-31T00:03:22;15.70;99.90
36442;DHT22;73131;50.820;16.274;2023-10-31T00:05:50;15.80;99.90
36442;DHT22;73131;50.820;16.274;2023-10-31T00:08:19;15.80;99.90
36442;DHT22;73131;50.820;16.274;2023-10-31T00:10:47;15.80;99.90
36442;DHT22;73131;50.820;16.274;2023-10-31T00:13:16;15.80;99.90
36442;DHT22;73131;50.820;16.274;2023-10-31T00:15:47;15.80;99.90
36442;DHT22;73131;50.820;16.274;2023-10-31T00:18:18;15.80;99.90
36442;DHT22;73131;50.820;16.274;2023-10-31T00:20:47;15.90;99.90
36442;DHT22;73131;50.820;16.274;2023-10-31T00:23:14;15.90;99.90
36442;DHT22;73131;50.820;16.274;2023-10-31T00:25:40;15.90;99.90
36442;DHT22;73131;50.820;16.274;2023-10-31T00:28:11;15.90;99.90
36442;DHT22;73131;50.820;16.274;2023-10-31T00:30:37;16.00;99.90
36442;DHT22;73131;50.820;16.274;2023-10-31T00:33:05;16.00;99.90
36442;DHT22;73131;50.820;16.274;2023-10-31T00:35:34;16.00;99.90
36442;DHT22;73131;50.820;16.274;2023-10-31T00:38:00;16.00;99.90
36442;DHT22;73131;50.820;16.274;2023-10-31T00:40:26;16.00;99.90
36442;DHT22;73131;50.820;16.274;2023-10-31T00:42:55;16.00;99.90
36442;DHT22;73131;50.820;16.274;2023-10-31T00:45:23;16.00;99.90
36442;DHT22;73131;50.820;16.274;2023-10-31T00:47:52;16.00;99.90
36442;DHT22;73131;50.820;16.274;2023-10-31T00:50:18;16.10;99.90
36442;DHT22;73131;50.820;16.274;2023-10-31T00:52:44;16.10;99.90
36442;DHT22;73131;50.820;16.274;2023-10-31T00:55:10;15.80;99.90
36442;DHT22;73131;50.820;16.274;2023-10-31T00:57:37;16.10;99.90
36442;DHT22;73131;50.820;16.274;2023-10-31T01:00:03;16.10;99.90
36442;DHT22;73131;50.820;16.274;2023-10-31T01:02:32;16.10;99.90
36442;DHT22;73131;50.820;16.274;2023-10-31T01:05:02;16.10;99.90
36442;DHT22;73131;50.820;16.274;2023-10-31T01:07:31;16.00;99.90
36442;DHT22;73131;50.820;16.274;2023-10-31T01:09:57;16.10;99.90
36442;DHT22;73131;50.820;16.274;2023-10-31T01:12:26;16.10;99.90
36442;DHT22;73131;50.820;16.274;2023-10-31T01:14:54;16.00;99.90
36442;DHT22;73131;50.820;16.274;2023-10-31T01:17:23;16.00;99.90
36442;DHT22;73131;50.820;16.274;2023-10-31T01:19:53;16.00;99.90
36442;DHT22;73131;50.820;16.274;2023-10-31T01:22:29;16.10;99.90
36442;DHT22;73131;50.820;16.274;2023-10-31T01:24:58;16.00;99.90
36442;DHT22;73131;50.820;16.274;2023-10-31T01:27:24;16.00;99.90
36442;DHT22;73131;50.820;16.274;2023-10-31T01:29:49;16.00;99.90
36442;DHT22;73131;50.820;16.274;2023-10-31T01:32:16;16.00;99.90
36442;DHT22;73131;50.820;16.274;2023-10-31T01:34:44;16.00;99.90
36442;DHT22;73131;50.820;16.274;2023-10-31T01:37:10;15.90;99.90
36442;DHT22;73131;50.820;16.274;2023-10-31T01:39:41;15.90;99.90
36442;DHT22;73131;50.820;16.274;2023-10-31T01:42:13;15.90;99.90
36442;DHT22;73131;50.820;16.274;2023-10-31T01:44:41;15.90;99.90
36442;DHT22;73131;50.820;16.274;2023-10-31T01:47:07;16.00;99.90
36442;DHT22;73131;50.820;16.274;2023-10-31T01:49:34;16.00;99.90
36442;DHT22;73131;50.820;16.274;2023-10-31T01:52:01;16.00;99.90
36442;DHT22;73131;50.820;16.274;2023-10-31T01:54:33;16.00;99.90
36442;DHT22;73131;50.820;16.274;2023-10-31T01:57:01;16.00;99.90
36442;DHT22;73131;50.820;16.274;2023-10-31T01:59:29;16.00;99.90
36442;DHT22;73131;50.820;16.274;2023-10-31T02:02:00;16.00;99.90
36442;DHT22;73131;50.820;16.274;2023-10-31T02:04:26;16.00;99.90
36442;DHT22;73131;50.820;16.274;2023-10-31T02:06:52;16.10;99.90
36442;DHT22;73131;50.820;16.274;2023-10-31T02:09:25;16.10;99.90
36442;DHT22;73131;50.820;16.274;2023-10-31T02:11:55;16.20;99.90
36442;DHT22;73131;50.820;16.274;2023-10-31T02:14:24;16.20;99.90
36442;DHT22;73131;50.820;16.274;2023-10-31T02:16:53;16.20;99.90
36442;DHT22;73131;50.820;16.274;2023-10-31T02:19:22;16.10;99.90
36442;DHT22;73131;50.820;16.274;2023-10-31T02:21:48;16.10;99.90
36442;DHT22;73131;50.820;16.274;2023-10-31T02:24:14;16.00;99.90
36442;DHT22;73131;50.820;16.274;2023-10-31T02:26:40;16.00;99.90
36442;DHT22;73131;50.820;16.274;2023-10-31T02:29:08;16.00;99.90
36442;DHT22;73131;50.820;16.274;2023-10-31T02:31:39;16.00;99.90
36442;DHT22;73131;50.820;16.274;2023-10-31T02:34:07;16.00;99.90
36442;DHT22;73131;50.820;16.274;2023-10-31T02:36:38;16.00;99.90
36442;DHT22;73131;50.820;16.274;2023-10-31T02:39:04;16.00;99.90
36442;DHT22;73131;50.820;16.274;2023-10-31T02:41:30;15.90;99.90
36442;DHT22;73131;50.820;16.274;2023-10-31T02:43:56;16.00;99.90
36442;DHT22;73131;50.820;16.274;2023-10-31T02:46:23;15.90;99.90
36442;DHT22;73131;50.820;16.274;2023-10-31T02:48:49;16.00;99.90
36442;DHT22;73131;50.820;16.274;2023-10-31T02:51:17;15.90;99.90
36442;DHT22;73131;50.820;16.274;2023-10-31T02:53:43;15.90;99.90
36442;DHT22;73131;50.820;16.274;2023-10-31T02:56:12;16.60;99.90
36442;DHT22;73131;50.820;16.274;2023-10-31T02:58:40;15.90;99.90
36442;DHT22;73131;50.820;16.274;2023-10-31T03:01:09;15.90;99.90
36442;DHT22;73131;50.820;16.274;2023-10-31T03:03:34;15.80;99.90
36442;DHT22;73131;50.820;16.274;2023-10-31T03:06:04;15.80;99.90
36442;DHT22;73131;50.820;16.274;2023-10-31T03:08:35;15.80;99.90
36442;DHT22;73131;50.820;16.274;2023-10-31T03:11:04;15.80;99.90
36442;DHT22;73131;50.820;16.274;2023-10-31T03:13:30;15.80;99.90
36442;DHT22;73131;50.820;16.274;2023-10-31T03:15:56;15.80;99.90
36442;DHT22;73131;50.820;16.274;2023-10-31T03:18:22;15.80;99.90
36442;DHT22;73131;50.820;16.274;2023-10-31T03:20:49;15.80;99.90
36442;DHT22;73131;50.820;16.274;2023-10-31T03:23:17;15.80;99.90
36442;DHT22;73131;50.820;16.274;2023-10-31T03:25:43;15.80;99.90
36442;DHT22;73131;50.820;16.274;2023-10-31T03:28:22;15.80;99.90
36442;DHT22;73131;50.820;16.274;2023-10-31T03:30:56;15.80;99.90
36442;DHT22;73131;50.820;16.274;2023-10-31T03:33:24;15.80;99.90
36442;DHT22;73131;50.820;16.274;2023-10-31T03:35:53;15.80;99.90
36442;DHT22;73131;50.820;16.274;2023-10-31T03:38:21;15.80;99.90
36442;DHT22;73131;50.820;16.274;2023-10-31T03:40:47;15.80;99.90
36442;DHT22;73131;50.820;16.274;2023-10-31T03:43:13;15.80;99.90
36442;DHT22;73131;50.820;16.274;2023-10-31T03:45:42;15.80;99.90
36442;DHT22;73131;50.820;16.274;2023-10-31T03:48:11;15.80;99.90
36442;DHT22;73131;50.820;16.274;2023-10-31T03:50:39;15.80;99.90
36442;DHT22;73131;50.820;16.274;2023-10-31T03:53:08;15.80;99.90
36442;DHT22;73131;50.820;16.274;2023-10-31T03:55:37;15.80;99.90
36442;DHT22;73131;50.820;16.274;2023-10-31T03:58:05;15.80;99.90
36442;DHT22;73131;50.820;16.274;2023-10-31T04:00:34;15.80;99.90
36442;DHT22;73131;50.820;16.274;2023-10-31T04:03:02;15.80;99.90
36442;DHT22;73131;50.820;16.274;2023-10-31T04:05:30;15.70;99.90
36442;DHT22;73131;50.820;16.274;2023-10-31T04:07:58;15.70;99.90
36442;DHT22;73131;50.820;16.274;2023-10-31T04:10:25;15.70;99.90
36442;DHT22;73131;50.820;16.274;2023-10-31T04:12:53;15.70;99.90
36442;DHT22;73131;50.820;16.274;2023-10-31T04:15:19;15.70;99.90
36442;DHT22;73131;50.820;16.274;2023-10-31T04:17:48;15.60;99.90
36442;DHT22;73131;50.820;16.274;2023-10-31T04:20:14;15.60;99.90
36442;DHT22;73131;50.820;16.274;2023-10-31T04:22:42;15.60;99.90
36442;DHT22;73131;50.820;16.274;2023-10-31T04:25:13;15.60;99.90
36442;DHT22;73131;50.820;16.274;2023-10-31T04:27:39;15.60;99.90
36442;DHT22;73131;50.820;16.274;2023-10-31T04:30:07;15.70;99.90
36442;DHT22;73131;50.820;16.274;2023-10-31T04:32:33;15.60;99.90
36442;DHT22;73131;50.820;16.274;2023-10-31T04:34:59;15.60;99.90
36442;DHT22;73131;50.820;16.274;2023-10-31T04:37:28;15.60;99.90
36442;DHT22;73131;50.820;16.274;2023-10-31T04:39:54;15.60;99.90
36442;DHT22;73131;50.820;16.274;2023-10-31T04:42:20;15.60;99.90
36442;DHT22;73131;50.820;16.274;2023-10-31T04:44:48;15.50;99.90
36442;DHT22;73131;50.820;16.274;2023-10-31T04:47:16;15.50;99.90
36442;DHT22;73131;50.820;16.274;2023-10-31T04:49:42;15.50;99.90
36442;DHT22;73131;50.820;16.274;2023-10-31T04:52:10;15.40;99.90
36442;DHT22;73131;50.820;16.274;2023-10-31T04:54:37;15.40;99.90
36442;DHT22;73131;50.820;16.274;2023-10-31T04:57:03;15.80;99.90
36442;DHT22;73131;50.820;16.274;2023-10-31T04:59:29;15.30;99.90
36442;DHT22;73131;50.820;16.274;2023-10-31T05:01:58;15.30;99.90
36442;DHT22;73131;50.820;16.274;2023-10-31T05:04:29;15.30;99.90
36442;DHT22;73131;50.820;16.274;2023-10-31T05:06:57;15.20;99.90
36442;DHT22;73131;50.820;16.274;2023-10-31T05:09:23;15.10;99.90
36442;DHT22;73131;50.820;16.274;2023-10-31T05:11:52;15.10;99.90
36442;DHT22;73131;50.820;16.274;2023-10-31T05:14:17;15.00;99.90
36442;DHT22;73131;50.820;16.274;2023-10-31T05:16:44;15.00;99.90
36442;DHT22;73131;50.820;16.274;2023-10-31T05:19:10;14.90;99.90
36442;DHT22;73131;50.820;16.274;2023-10-31T05:21:39;14.80;99.90
36442;DHT22;73131;50.820;16.274;2023-10-31T05:24:05;14.80;99.90
36442;DHT22;73131;50.820;16.274;2023-10-31T05:26:34;14.80;99.90
36442;DHT22;73131;50.820;16.274;2023-10-31T05:29:00;14.70;99.90
36442;DHT22;73131;50.820;16.274;2023-10-31T05:31:28;14.70;99.90
36442;DHT22;73131;50.820;16.274;2023-10-31T05:33:54;14.70;99.90
36442;DHT22;73131;50.820;16.274;2023-10-31T05:36:24;14.70;99.90
36442;DHT22;73131;50.820;16.274;2023-10-31T05:38:52;14.70;99.90
36442;DHT22;73131;50.820;16.274;2023-10-31T05:41:19;14.60;99.90
36442;DHT22;73131;50.820;16.274;2023-10-31T05:43:45;14.60;99.90
36442;DHT22;73131;50.820;16.274;2023-10-31T05:46:13;14.60;99.90
36442;DHT22;73131;50.820;16.274;2023-10-31T05:48:43;14.60;99.90
36442;DHT22;73131;50.820;16.274;2023-10-31T05:51:16;14.60;99.90
36442;DHT22;73131;50.820;16.274;2023-10-31T05:53:45;14.50;99.90
36442;DHT22;73131;50.820;16.274;2023-10-31T05:56:15;14.50;99.90
36442;DHT22;73131;50.820;16.274;2023-10-31T05:58:45;14.50;99.90
36442;DHT22;73131;50.820;16.274;2023-10-31T06:01:14;14.50;99.90
36442;DHT22;73131;50.820;16.274;2023-10-31T06:03:43;14.50;99.90
36442;DHT22;73131;50.820;16.274;2023-10-31T06:06:14;14.50;99.90
36442;DHT22;73131;50.820;16.274;2023-10-31T06:08:41;14.50;99.90
36442;DHT22;73131;50.820;16.274;2023-10-31T06:11:10;14.40;99.90
36442;DHT22;73131;50.820;16.274;2023-10-31T06:13:38;14.50;99.90
36442;DHT22;73131;50.820;16.274;2023-10-31T06:16:07;14.40;99.90
36442;DHT22;73131;50.820;16.274;2023-10-31T06:18:35;14.30;99.90
36442;DHT22;73131;50.820;16.274;2023-10-31T06:21:03;14.40;99.90
36442;DHT22;73131;50.820;16.274;2023-10-31T06:23:31;14.30;99.90
36442;DHT22;73131;50.820;16.274;2023-10-31T06:26:00;14.30;99.90
36442;DHT22;73131;50.820;16.274;2023-10-31T06:28:26;14.30;99.90
36442;DHT22;73131;50.820;16.274;2023-10-31T06:30:52;14.20;99.90
36442;DHT22;73131;50.820;16.274;2023-10-31T06:33:26;14.20;99.90
36442;DHT22;73131;50.820;16.274;2023-10-31T06:35:52;14.20;99.90
36442;DHT22;73131;50.820;16.274;2023-10-31T06:38:19;14.20;99.90
36442;DHT22;73131;50.820;16.274;2023-10-31T06:40:46;14.10;99.90
36442;DHT22;73131;50.820;16.274;2023-10-31T06:43:13;14.10;99.90
36442;DHT22;73131;50.820;16.274;2023-10-31T06:45:40;14.10;99.90
36442;DHT22;73131;50.820;16.274;2023-10-31T06:48:05;14.20;99.90
36442;DHT22;73131;50.820;16.274;2023-10-31T06:50:35;14.20;99.90
36442;DHT22;73131;50.820;16.274;2023-10-31T06:53:03;14.20;99.90
36442;DHT22;73131;50.820;16.274;2023-10-31T06:55:29;14.20;99.90
36442;DHT22;73131;50.820;16.274;2023-10-31T06:57:57;14.20;99.90
36442;DHT22;73131;50.820;16.274;2023-10-31T07:00:27;14.30;99.90
36442;DHT22;73131;50.820;16.274;2023-10-31T07:03:04;14.30;99.90
36442;DHT22;73131;50.820;16.274;2023-10-31T07:05:39;14.40;99.90
36442;DHT22;73131;50.820;16.274;2023-10-31T07:08:05;14.40;99.90
36442;DHT22;73131;50.820;16.274;2023-10-31T07:10:39;14.40;99.90
36442;DHT22;73131;50.820;16.274;2023-10-31T07:13:05;14.40;99.90
36442;DHT22;73131;50.820;16.274;2023-10-31T07:15:36;14.50;99.90
36442;DHT22;73131;50.820;16.274;2023-10-31T07:18:07;14.50;99.90
36442;DHT22;73131;50.820;16.274;2023-10-31T07:20:34;14.50;99.90
36442;DHT22;73131;50.820;16.274;2023-10-31T07:23:02;14.60;99.90
36442;DHT22;73131;50.820;16.274;2023-10-31T07:25:28;14.70;99.90
36442;DHT22;73131;50.820;16.274;2023-10-31T07:27:56;14.80;99.90
36442;DHT22;73131;50.820;16.274;2023-10-31T07:30:25;14.90;99.90
36442;DHT22;73131;50.820;16.274;2023-10-31T07:32:53;14.90;99.90
36442;DHT22;73131;50.820;16.274;2023-10-31T07:35:24;14.90;99.90
36442;DHT22;73131;50.820;16.274;2023-10-31T07:37:50;14.90;99.90
36442;DHT22;73131;50.820;16.274;2023-10-31T07:40:23;14.90;99.90
36442;DHT22;73131;50.820;16.274;2023-10-31T07:42:49;14.80;99.90
36442;DHT22;73131;50.820;16.274;2023-10-31T07:45:17;14.80;99.90
36442;DHT22;73131;50.820;16.274;2023-10-31T07:47:43;14.80;99.90
36442;DHT22;73131;50.820;16.274;2023-10-31T07:50:14;14.80;99.90
36442;DHT22;73131;50.820;16.274;2023-10-31T07:52:44;14.90;99.90
36442;DHT22;73131;50.820;16.274;2023-10-31T07:55:12;14.80;99.90
36442;DHT22;73131;50.820;16.274;2023-10-31T07:57:40;14.80;99.90
36442;DHT22;73131;50.820;16.274;2023-10-31T08:00:12;14.70;99.90
36442;DHT22;73131;50.820;16.274;2023-10-31T08:02:40;14.60;99.90
36442;DHT22;73131;50.820;16.274;2023-10-31T08:05:10;14.60;99.90
36442;DHT22;73131;50.820;16.274;2023-10-31T08:07:39;14.60;99.90
36442;DHT22;73131;50.820;16.274;2023-10-31T08:10:05;14.60;99.90
36442;DHT22;73131;50.820;16.274;2023-10-31T08:12:31;14.60;99.90
36442;DHT22;73131;50.820;16.274;2023-10-31T08:14:57;14.60;99.90
36442;DHT22;73131;50.820;16.274;2023-10-31T08:17:28;14.70;99.90
36442;DHT22;73131;50.820;16.274;2023-10-31T08:19:56;14.70;99.90
36442;DHT22;73131;50.820;16.274;2023-10-31T08:22:25;14.70;99.90
36442;DHT22;73131;50.820;16.274;2023-10-31T08:24:51;14.70;99.90
36442;DHT22;73131;50.820;16.274;2023-10-31T08:27:19;14.80;99.90
36442;DHT22;73131;50.820;16.274;2023-10-31T08:29:47;14.70;99.90
36442;DHT22;73131;50.820;16.274;2023-10-31T08:32:13;14.70;99.90
36442;DHT22;73131;50.820;16.274;2023-10-31T08:34:39;14.60;99.90
36442;DHT22;73131;50.820;16.274;2023-10-31T08:37:08;14.60;99.90
36442;DHT22;73131;50.820;16.274;2023-10-31T08:39:36;14.70;99.90
36442;DHT22;73131;50.820;16.274;2023-10-31T08:42:03;14.60;99.90
36442;DHT22;73131;50.820;16.274;2023-10-31T08:44:31;14.60;99.90
36442;DHT22;73131;50.820;16.274;2023-10-31T08:46:59;14.50;99.90
36442;DHT22;73131;50.820;16.274;2023-10-31T08:49:25;14.60;99.90
36442;DHT22;73131;50.820;16.274;2023-10-31T08:51:54;14.50;99.90
36442;DHT22;73131;50.820;16.274;2023-10-31T08:54:20;14.50;99.90
36442;DHT22;73131;50.820;16.274;2023-10-31T08:56:45;14.40;99.90
36442;DHT22;73131;50.820;16.274;2023-10-31T08:59:12;14.30;99.90
36442;DHT22;73131;50.820;16.274;2023-10-31T09:01:38;14.20;99.90
36442;DHT22;73131;50.820;16.274;2023-10-31T09:04:04;14.20;99.90
36442;DHT22;73131;50.820;16.274;2023-10-31T09:06:30;14.20;99.90
36442;DHT22;73131;50.820;16.274;2023-10-31T09:08:56;14.20;99.90
36442;DHT22;73131;50.820;16.274;2023-10-31T09:11:22;14.20;99.90
36442;DHT22;73131;50.820;16.274;2023-10-31T09:13:48;14.20;99.90
36442;DHT22;73131;50.820;16.274;2023-10-31T09:16:14;14.20;99.90
36442;DHT22;73131;50.820;16.274;2023-10-31T09:18:42;14.30;99.90
36442;DHT22;73131;50.820;16.274;2023-10-31T09:21:11;14.60;99.90
36442;DHT22;73131;50.820;16.274;2023-10-31T09:23:40;15.00;99.90
36442;DHT22;73131;50.820;16.274;2023-10-31T09:26:11;15.40;99.90
36442;DHT22;73131;50.820;16.274;2023-10-31T09:28:37;15.60;99.90
36442;DHT22;73131;50.820;16.274;2023-10-31T09:31:07;15.70;99.90
36442;DHT22;73131;50.820;16.274;2023-10-31T09:33:35;15.60;99.90
36442;DHT22;73131;50.820;16.274;2023-10-31T09:36:05;15.60;99.90
36442;DHT22;73131;50.820;16.274;2023-10-31T09:38:34;15.50;99.90
36442;DHT22;73131;50.820;16.274;2023-10-31T09:41:00;15.40;99.90
36442;DHT22;73131;50.820;16.274;2023-10-31T09:43:31;15.30;99.90
36442;DHT22;73131;50.820;16.274;2023-10-31T09:45:58;15.30;99.90
36442;DHT22;73131;50.820;16.274;2023-10-31T09:48:29;15.40;99.90
36442;DHT22;73131;50.820;16.274;2023-10-31T09:50:58;15.30;99.90
36442;DHT22;73131;50.820;16.274;2023-10-31T09:53:28;15.20;99.90
36442;DHT22;73131;50.820;16.274;2023-10-31T09:55:58;15.10;99.90
36442;DHT22;73131;50.820;16.274;2023-10-31T09:58:24;15.10;99.90
36442;DHT22;73131;50.820;16.274;2023-10-31T10:00:50;14.90;99.90
36442;DHT22;73131;50.820;16.274;2023-10-31T10:03:16;14.80;99.90
36442;DHT22;73131;50.820;16.274;2023-10-31T10:05:46;14.80;99.90
36442;DHT22;73131;50.820;16.274;2023-10-31T10:08:14;14.70;99.90
36442;DHT22;73131;50.820;16.274;2023-10-31T10:10:42;14.60;99.90
36442;DHT22;73131;50.820;16.274;2023-10-31T10:13:09;14.60;99.90
36442;DHT22;73131;50.820;16.274;2023-10-31T10:15:50;14.50;99.90
36442;DHT22;73131;50.820;16.274;2023-10-31T10:18:28;14.40;99.90
36442;DHT22;73131;50.820;16.274;2023-10-31T10:20:58;14.40;99.90
36442;DHT22;73131;50.820;16.274;2023-10-31T10:23:25;14.30;99.90
36442;DHT22;73131;50.820;16.274;2023-10-31T10:25:52;14.20;99.90
36442;DHT22;73131;50.820;16.274;2023-10-31T10:28:22;14.20;99.90
36442;DHT22;73131;50.820;16.274;2023-10-31T10:30:51;14.10;99.90
36442;DHT22;73131;50.820;16.274;2023-10-31T10:33:20;14.10;99.90
36442;DHT22;73131;50.820;16.274;2023-10-31T10:35:46;14.10;99.90
36442;DHT22;73131;50.820;16.274;2023-10-31T10:38:15;14.10;99.90
36442;DHT22;73131;50.820;16.274;2023-10-31T10:40:43;14.10;99.90
36442;DHT22;73131;50.820;16.274;2023-10-31T10:43:23;14.20;99.90
36442;DHT22;73131;50.820;16.274;2023-10-31T10:45:57;14.30;99.90
36442;DHT22;73131;50.820;16.274;2023-10-31T10:48:25;15.60;99.90
36442;DHT22;73131;50.820;16.274;2023-10-31T10:51:21;14.50;99.90
36442;DHT22;73131;50.820;16.274;2023-10-31T10:53:58;14.60;99.90
36442;DHT22;73131;50.820;16.274;2023-10-31T10:56:54;14.60;99.90
36442;DHT22;73131;50.820;16.274;2023-10-31T10:59:43;14.60;99.90
36442;DHT22;73131;50.820;16.274;2023-10-31T11:02:17;14.60;99.90
36442;DHT22;73131;50.820;16.274;2023-10-31T11:04:48;14.60;99.90
36442;DHT22;73131;50.820;16.274;2023-10-31T11:07:16;14.60;99.90
36442;DHT22;73131;50.820;16.274;2023-10-31T11:09:44;14.70;99.90
36442;DHT22;73131;50.820;16.274;2023-10-31T11:12:13;14.70;99.90
36442;DHT22;73131;50.820;16.274;2023-10-31T11:14:43;14.70;99.90
36442;DHT22;73131;50.820;16.274;2023-10-31T11:17:20;14.90;99.90
36442;DHT22;73131;50.820;16.274;2023-10-31T11:19:53;15.00;99.90
36442;DHT22;73131;50.820;16.274;2023-10-31T11:22:20;15.20;99.90
36442;DHT22;73131;50.820;16.274;2023-10-31T11:24:49;15.40;99.90
36442;DHT22;73131;50.820;16.274;2023-10-31T11:27:17;15.60;99.90
36442;DHT22;73131;50.820;16.274;2023-10-31T11:29:47;14.60;99.90
36442;DHT22;73131;50.820;16.274;2023-10-31T11:32:15;15.80;99.90
36442;DHT22;73131;50.820;16.274;2023-10-31T11:34:51;15.90;99.90
36442;DHT22;73131;50.820;16.274;2023-10-31T11:37:23;15.90;99.90
36442;DHT22;73131;50.820;16.274;2023-10-31T11:40:14;16.00;99.90
36442;DHT22;73131;50.820;16.274;2023-10-31T11:42:56;16.00;99.90
36442;DHT22;73131;50.820;16.274;2023-10-31T11:45:36;15.90;99.90
36442;DHT22;73131;50.820;16.274;2023-10-31T11:48:04;15.80;99.90
36442;DHT22;73131;50.820;16.274;2023-10-31T11:50:34;15.70;99.90
36442;DHT22;73131;50.820;16.274;2023-10-31T11:53:02;16.50;99.90
36442;DHT22;73131;50.820;16.274;2023-10-31T11:55:38;15.40;99.90
36442;DHT22;73131;50.820;16.274;2023-10-31T11:58:17;15.20;99.90
36442;DHT22;73131;50.820;16.274;2023-10-31T12:00:50;15.00;99.90
36442;DHT22;73131;50.820;16.274;2023-10-31T12:03:20;15.00;99.90
36442;DHT22;73131;50.820;16.274;2023-10-31T12:05:58;14.80;99.90
36442;DHT22;73131;50.820;16.274;2023-10-31T12:08:30;14.80;99.90
36442;DHT22;73131;50.820;16.274;2023-10-31T12:11:12;14.70;99.90
36442;DHT22;73131;50.820;16.274;2023-10-31T12:13:55;14.70;99.90
36442;DHT22;73131;50.820;16.274;2023-10-31T12:16:27;14.60;99.90
36442;DHT22;73131;50.820;16.274;2023-10-31T12:18:59;14.70;99.90
36442;DHT22;73131;50.820;16.274;2023-10-31T12:21:45;14.70;99.90
36442;DHT22;73131;50.820;16.274;2023-10-31T12:24:18;14.70;99.90
36442;DHT22;73131;50.820;16.274;2023-10-31T12:26:47;14.80;99.90
36442;DHT22;73131;50.820;16.274;2023-10-31T12:29:16;14.70;99.90
36442;DHT22;73131;50.820;16.274;2023-10-31T12:31:53;14.80;99.90
36442;DHT22;73131;50.820;16.274;2023-10-31T12:34:23;14.80;99.90
36442;DHT22;73131;50.820;16.274;2023-10-31T12:36:54;14.80;99.90
36442;DHT22;73131;50.820;16.274;2023-10-31T12:39:27;14.90;99.90
36442;DHT22;73131;50.820;16.274;2023-10-31T12:41:54;15.00;99.90
36442;DHT22;73131;50.820;16.274;2023-10-31T12:44:25;15.00;99.90
36442;DHT22;73131;50.820;16.274;2023-10-31T12:46:54;15.10;99.90
36442;DHT22;73131;50.820;16.274;2023-10-31T12:49:20;15.20;99.90
36442;DHT22;73131;50.820;16.274;2023-10-31T12:52:04;15.20;99.90
36442;DHT22;73131;50.820;16.274;2023-10-31T12:54:35;15.20;99.90
36442;DHT22;73131;50.820;16.274;2023-10-31T12:57:11;15.20;99.90
36442;DHT22;73131;50.820;16.274;2023-10-31T12:59:39;15.20;99.90
36442;DHT22;73131;50.820;16.274;2023-10-31T13:02:08;15.10;99.90
36442;DHT22;73131;50.820;16.274;2023-10-31T13:04:36;15.00;99.90
36442;DHT22;73131;50.820;16.274;2023-10-31T13:07:08;15.00;99.90
36442;DHT22;73131;50.820;16.274;2023-10-31T13:09:42;14.90;99.90
36442;DHT22;73131;50.820;16.274;2023-10-31T13:12:11;14.80;99.90
36442;DHT22;73131;50.820;16.274;2023-10-31T13:14:37;14.70;99.90
36442;DHT22;73131;50.820;16.274;2023-10-31T13:17:05;14.60;99.90
36442;DHT22;73131;50.820;16.274;2023-10-31T13:19:32;14.50;99.90
36442;DHT22;73131;50.820;16.274;2023-10-31T13:22:00;14.50;99.90
36442;DHT22;73131;50.820;16.274;2023-10-31T13:24:26;14.40;99.90
36442;DHT22;73131;50.820;16.274;2023-10-31T13:27:02;14.30;99.90
36442;DHT22;73131;50.820;16.274;2023-10-31T13:29:29;14.20;99.90
36442;DHT22;73131;50.820;16.274;2023-10-31T13:31:55;14.10;99.90
36442;DHT22;73131;50.820;16.274;2023-10-31T13:34:21;14.00;99.90
36442;DHT22;73131;50.820;16.274;2023-10-31T13:36:50;13.90;99.90
36442;DHT22;73131;50.820;16.274;2023-10-31T13:39:20;13.90;99.90
36442;DHT22;73131;50.820;16.274;2023-10-31T13:41:47;13.90;99.90
36442;DHT22;73131;50.820;16.274;2023-10-31T13:44:16;13.90;99.90
36442;DHT22;73131;50.820;16.274;2023-10-31T13:46:42;13.90;99.90
36442;DHT22;73131;50.820;16.274;2023-10-31T13:49:08;13.90;99.90
36442;DHT22;73131;50.820;16.274;2023-10-31T13:51:37;13.90;99.90
36442;DHT22;73131;50.820;16.274;2023-10-31T13:54:06;13.90;99.90
36442;DHT22;73131;50.820;16.274;2023-10-31T13:56:32;13.90;99.90
36442;DHT22;73131;50.820;16.274;2023-10-31T13:59:02;13.90;99.90
36442;DHT22;73131;50.820;16.274;2023-10-31T14:01:30;13.80;99.90
36442;DHT22;73131;50.820;16.274;2023-10-31T14:04:01;13.80;99.90
36442;DHT22;73131;50.820;16.274;2023-10-31T14:06:27;12.90;99.90
36442;DHT22;73131;50.820;16.274;2023-10-31T14:09:01;13.80;99.90
36442;DHT22;73131;50.820;16.274;2023-10-31T14:11:33;13.80;99.90
36442;DHT22;73131;50.820;16.274;2023-10-31T14:14:00;13.80;99.90
36442;DHT22;73131;50.820;16.274;2023-10-31T14:16:44;13.80;99.90
36442;DHT22;73131;50.820;16.274;2023-10-31T14:19:13;13.80;99.90
36442;DHT22;73131;50.820;16.274;2023-10-31T14:21:39;13.80;99.90
36442;DHT22;73131;50.820;16.274;2023-10-31T14:24:07;13.80;99.90
36442;DHT22;73131;50.820;16.274;2023-10-31T14:26:34;13.80;99.90
36442;DHT22;73131;50.820;16.274;2023-10-31T14:29:02;13.70;99.90
36442;DHT22;73131;50.820;16.274;2023-10-31T14:31:28;13.70;99.90
36442;DHT22;73131;50.820;16.274;2023-10-31T14:33:54;13.70;99.90
36442;DHT22;73131;50.820;16.274;2023-10-31T14:36:20;13.70;99.90
36442;DHT22;73131;50.820;16.274;2023-10-31T14:38:48;13.60;99.90
36442;DHT22;73131;50.820;16.274;2023-10-31T14:41:14;13.60;99.90
36442;DHT22;73131;50.820;16.274;2023-10-31T14:43:45;13.60;99.90
36442;DHT22;73131;50.820;16.274;2023-10-31T14:46:11;13.50;99.90
36442;DHT22;73131;50.820;16.274;2023-10-31T14:48:37;13.50;99.90
36442;DHT22;73131;50.820;16.274;2023-10-31T14:51:03;13.40;99.90
36442;DHT22;73131;50.820;16.274;2023-10-31T14:53:32;13.40;99.90
36442;DHT22;73131;50.820;16.274;2023-10-31T14:56:01;13.30;99.90
36442;DHT22;73131;50.820;16.274;2023-10-31T14:58:28;13.30;99.90
36442;DHT22;73131;50.820;16.274;2023-10-31T15:00:56;13.30;99.90
36442;DHT22;73131;50.820;16.274;2023-10-31T15:03:27;13.20;99.90
36442;DHT22;73131;50.820;16.274;2023-10-31T15:05:55;13.20;99.90
36442;DHT22;73131;50.820;16.274;2023-10-31T15:08:23;13.20;99.90
36442;DHT22;73131;50.820;16.274;2023-10-31T15:10:52;13.20;99.90
36442;DHT22;73131;50.820;16.274;2023-10-31T15:13:18;13.10;99.90
36442;DHT22;73131;50.820;16.274;2023-10-31T15:15:44;12.60;99.90
36442;DHT22;73131;50.820;16.274;2023-10-31T15:18:10;13.00;99.90
36442;DHT22;73131;50.820;16.274;2023-10-31T15:20:41;13.00;99.90
36442;DHT22;73131;50.820;16.274;2023-10-31T15:23:07;13.00;99.90
36442;DHT22;73131;50.820;16.274;2023-10-31T15:25:38;13.00;99.90